This is the latest recevied weather packets stored in our database for station/object WL7CLI. If no packets are shown the sender has not sent any weather packets the latest 10 day(s).
| Time | Temp. | Humidity | Pressure | Rain* | Wind** | Luminosity | Snow |
|---|---|---|---|---|---|---|---|
| 1788112684 | 27.78° C | 66% | 1011.5 hPa | 0 mm | - | - | - |
| 1788111634 | 27.22° C | 69% | 1010 hPa | 0 mm | - | - | - |
| 1788111307 | 26.67° C | 68% | 1010 hPa | 0 mm | - | - | - |
| 1788110884 | 26.67° C | 70% | 1011.7 hPa | 0 mm | - | - | - |
| 1788110433 | 26.67° C | 70% | 1010 hPa | 0.25 mm | - | - | - |
| 1788110121 | 26.11° C | 73% | 1010 hPa | 0.25 mm | - | - | - |
| 1788109233 | 25.56° C | 79% | 1010 hPa | 0.25 mm | - | - | - |
| 1788109084 | 25.56° C | 78% | 1011.7 hPa | 0.25 mm | - | - | - |
| 1788108904 | 25° C | 78% | 1010.1 hPa | 0.25 mm | - | - | - |
| 1788108033 | 24.44° C | 81% | 1010.2 hPa | 0.25 mm | - | - | - |
| 1788107706 | 24.44° C | 82% | 1010.3 hPa | 0.25 mm | - | - | - |
| 1788107284 | 24.44° C | 81% | 1011.8 hPa | 0.25 mm | - | - | - |
| 1788106832 | 24.44° C | 80% | 1010.6 hPa | 0.25 mm | - | - | - |
| 1788105632 | 25° C | 74% | 1010.8 hPa | 0 mm | - | - | - |
| 1788105484 | 25° C | 73% | 1012.3 hPa | 0 mm | - | - | - |
| 1788105306 | 25° C | 73% | 1010.5 hPa | 0 mm | - | - | - |
| 1788104433 | 25° C | 73% | 1010.4 hPa | 0 mm | - | - | - |
| 1788103684 | 25.56° C | 73% | 1012 hPa | 0 mm | - | - | - |
| 1788103232 | 25.56° C | 72% | 1010.3 hPa | 0 mm | - | - | - |
| 1788102906 | 25.56° C | 70% | 1010.1 hPa | 0 mm | - | - | - |
| 1788102032 | 26.11° C | 68% | 1009.7 hPa | 0 mm | - | - | - |
| 1788101884 | 26.11° C | 67% | 1011.3 hPa | 0 mm | - | - | - |
| 1788101708 | 26.11° C | 68% | 1009.6 hPa | 0 mm | - | - | - |
| 1788100834 | 26.11° C | 68% | 1009.5 hPa | 0 mm | - | - | - |
| 1788100508 | 26.11° C | 68% | 1009.5 hPa | 0 mm | - | - | - |
* Rain latest hour (hover to see other rain measurements)
** Current wind speed in m/s (hover to see current wind gust speed)